Time;durP1;ratioP1;P1;durP2;ratioP2;P2;SDS_P1;SDS_P2;PMS_P1;PMS_P2;Temp;Humidity;BMP_temperature;BMP_pressure;BME280_temperature;BME280_humidity;BME280_pressure;Samples;Min_cycle;Max_cycle;Signal;HPM_P1;HPM_P2
2021/04/09 04:50:44;;;;;;;12.85;8.45;;;2.70;99.90;;;;;;5610467;23;20052;-84
2021/04/09 04:53:11;;;;;;;15.43;8.98;;;2.80;99.90;;;;;;4904475;29;20048;-84
2021/04/09 04:55:37;;;;;;;;;;;2.80;99.90;;;;;;4897956;29;20120;-85
2021/04/09 04:58:04;;;;;;;14.77;8.40;;;2.90;99.90;;;;;;4898156;29;20372;-84
2021/04/09 05:00:31;;;;;;;16.52;8.90;;;2.70;99.90;;;;;;4904334;29;20052;-84
2021/04/09 05:02:57;;;;;;;14.98;8.95;;;2.50;99.90;;;;;;4879762;29;20059;-85
2021/04/09 05:05:24;;;;;;;15.27;9.63;;;2.20;99.90;;;;;;4879928;29;20135;-86
2021/04/09 05:07:51;;;;;;;;;;;2.00;99.90;;;;;;4911359;23;20111;-64
2021/04/09 05:10:18;;;;;;;20.02;9.60;;;1.70;99.90;;;;;;4914419;29;19958;-64
2021/04/09 05:12:44;;;;;;;18.60;10.25;;;1.50;99.90;;;;;;4896105;29;20148;-64
2021/04/09 05:15:12;;;;;;;16.55;10.05;;;1.40;99.90;;;;;;4895866;29;20071;-64
2021/04/09 05:17:38;;;;;;;22.92;11.63;;;1.30;99.90;;;;;;4908187;29;20095;-64
2021/04/09 05:20:05;;;;;;;;;;;1.20;99.90;;;;;;4915675;29;20067;-64
2021/04/09 05:22:32;;;;;;;18.38;9.85;;;1.30;99.90;;;;;;4899622;29;19923;-64
2021/04/09 05:25:00;;;;;;;24.85;12.80;;;1.40;99.90;;;;;;4914470;29;20158;-64
2021/04/09 05:27:26;;;;;;;24.02;12.52;;;1.50;99.90;;;;;;4915124;29;20547;-64
2021/04/09 05:29:53;;;;;;;;;;;1.60;99.90;;;;;;4913869;29;20063;-63
2021/04/09 05:32:19;;;;;;;40.47;21.02;;;1.70;99.90;;;;;;4906050;29;20362;-63
2021/04/09 05:34:46;;;;;;;19.35;11.80;;;1.90;99.90;;;;;;4901469;29;20053;-63
2021/04/09 05:37:12;;;;;;;23.50;11.95;;;2.20;99.90;;;;;;4903840;29;20065;-64
2021/04/09 05:39:39;;;;;;;20.33;10.43;;;2.40;99.90;;;;;;4907062;29;20063;-63
2021/04/09 05:42:07;;;;;;;31.77;13.30;;;2.60;99.90;;;;;;4906768;29;20492;-63
2021/04/09 05:44:36;;;;;;;22.08;12.27;;;2.80;99.90;;;;;;4908711;29;20079;-63
2021/04/09 05:47:03;;;;;;;20.30;10.05;;;3.00;99.90;;;;;;4911972;29;20076;-63
2021/04/09 05:49:30;;;;;;;28.55;9.68;;;3.20;99.90;;;;;;4908600;29;20048;-63
2021/04/09 05:51:57;;;;;;;;;;;3.60;99.90;;;;;;4903364;29;20360;-62
2021/04/09 05:54:23;;;;;;;25.90;13.07;;;4.00;99.90;;;;;;4919347;29;20399;-62
2021/04/09 05:56:50;;;;;;;;;;;4.50;99.90;;;;;;4907944;29;20044;-62
2021/04/09 05:59:17;;;;;;;33.85;20.40;;;4.70;99.90;;;;;;4895102;29;19923;-63
2021/04/09 06:01:45;;;;;;;33.38;20.17;;;5.30;99.90;;;;;;4895516;29;20134;-63
2021/04/09 06:04:11;;;;;;;16.83;10.00;;;5.40;99.90;;;;;;4889971;29;20044;-62
2021/04/09 06:06:38;;;;;;;15.32;9.70;;;5.90;99.90;;;;;;4885818;29;20101;-64
2021/04/09 06:09:05;;;;;;;16.92;9.90;;;5.90;99.90;;;;;;4897722;29;20104;-63
2021/04/09 06:11:32;;;;;;;13.00;8.05;;;6.60;99.90;;;;;;4894910;29;20049;-63
2021/04/09 06:13:58;;;;;;;;;;;7.10;99.90;;;;;;4895596;29;20051;-63
2021/04/09 06:16:26;;;;;;;14.88;8.82;;;6.70;99.90;;;;;;4897943;29;19963;-63
2021/04/09 06:18:53;;;;;;;12.68;8.70;;;6.40;99.90;;;;;;4898487;29;20477;-63
2021/04/09 06:21:19;;;;;;;21.45;12.93;;;6.40;99.90;;;;;;4895308;29;20103;-63
2021/04/09 06:23:46;;;;;;;;;;;6.10;99.90;;;;;;4899733;29;20469;-63
2021/04/09 06:26:13;;;;;;;16.00;9.70;;;5.70;99.90;;;;;;4902567;29;19977;-63
2021/04/09 06:28:39;;;;;;;15.82;10.60;;;5.50;99.90;;;;;;4895925;29;20172;-63
2021/04/09 06:31:06;;;;;;;13.85;8.95;;;5.40;99.90;;;;;;4895715;29;20068;-62
2021/04/09 06:33:35;;;;;;;17.45;11.43;;;5.60;99.90;;;;;;4895368;29;20076;-63
2021/04/09 06:36:01;;;;;;;15.60;11.90;;;5.80;99.90;;;;;;4894648;29;20048;-64
2021/04/09 06:38:28;;;;;;;18.58;9.90;;;6.00;99.90;;;;;;4894904;29;20077;-64
2021/04/09 06:40:54;;;;;;;;;;;5.90;99.90;;;;;;4894216;29;20067;-63
2021/04/09 06:43:23;;;;;;;17.90;9.02;;;5.80;99.90;;;;;;4893805;29;19927;-64
2021/04/09 06:45:50;;;;;;;14.15;8.43;;;5.90;99.90;;;;;;4894552;29;20087;-62
2021/04/09 06:48:16;;;;;;;;;;;6.00;99.90;;;;;;4895191;29;20051;-63
2021/04/09 06:50:44;;;;;;;14.43;8.60;;;6.30;99.90;;;;;;4893947;29;19924;-63
2021/04/09 06:53:13;;;;;;;11.32;8.20;;;6.60;99.90;;;;;;4893932;29;20390;-63
2021/04/09 06:55:42;;;;;;;12.02;8.77;;;6.80;99.90;;;;;;4903283;29;20054;-63
2021/04/09 06:58:12;;;;;;;12.77;8.15;;;6.70;99.90;;;;;;4898737;29;20774;-63
2021/04/09 07:00:40;;;;;;;10.82;7.63;;;6.50;99.90;;;;;;4892854;29;20068;-63
2021/04/09 07:03:09;;;;;;;11.43;7.85;;;7.20;99.90;;;;;;4891322;29;20083;-64
2021/04/09 07:05:36;;;;;;;16.73;7.70;;;7.60;99.90;;;;;;4894011;29;20059;-63
2021/04/09 07:08:05;;;;;;;16.13;8.30;;;7.90;99.90;;;;;;4893453;29;20127;-64
2021/04/09 07:10:31;;;;;;;11.65;7.78;;;8.30;99.90;;;;;;4894255;29;20080;-64
2021/04/09 07:13:05;;;;;;;;;;;8.30;99.90;;;;;;4894644;29;20127;-64
2021/04/09 07:15:38;;;;;;;13.52;7.65;;;8.40;99.90;;;;;;4894174;29;20015;-63
2021/04/09 07:18:06;;;;;;;16.23;7.47;;;8.40;99.90;;;;;;4906812;29;20051;-64
2021/04/09 07:20:34;;;;;;;13.32;7.65;;;8.40;99.90;;;;;;4892190;29;20104;-64
2021/04/09 07:23:03;;;;;;;14.23;7.80;;;8.60;99.90;;;;;;4893649;29;20105;-64
2021/04/09 07:25:32;;;;;;;9.57;7.35;;;8.50;99.90;;;;;;4893824;29;20514;-64
2021/04/09 07:28:14;;;;;;;13.55;7.57;;;8.70;99.90;;;;;;4889426;29;20041;-63
2021/04/09 07:30:42;;;;;;;12.18;8.07;;;8.50;99.90;;;;;;4893349;29;20072;-63
2021/04/09 07:33:10;;;;;;;14.68;8.10;;;8.40;99.90;;;;;;4893419;29;20051;-64
2021/04/09 07:35:48;;;;;;;12.73;8.07;;;8.00;99.90;;;;;;4892810;29;20040;-64
2021/04/09 07:38:26;;;;;;;11.65;8.07;;;7.90;99.90;;;;;;4893122;29;20044;-64
2021/04/09 07:40:56;;;;;;;13.23;7.35;;;8.20;99.90;;;;;;4893725;29;20044;-63
2021/04/09 07:43:23;;;;;;;19.95;8.82;;;8.40;99.90;;;;;;4894082;29;20072;-63
2021/04/09 07:45:54;;;;;;;14.35;8.38;;;8.70;99.90;;;;;;4893080;29;20036;-64
2021/04/09 07:48:27;;;;;;;11.43;8.00;;;8.60;99.90;;;;;;4892258;29;20052;-64
2021/04/09 07:50:55;;;;;;;10.40;7.95;;;8.30;99.90;;;;;;4893162;29;20056;-63
2021/04/09 07:53:40;;;;;;;14.18;8.05;;;8.30;99.90;;;;;;4884366;29;20072;-64
2021/04/09 07:56:09;;;;;;;14.25;7.72;;;8.60;99.90;;;;;;4891245;29;20044;-64
2021/04/09 07:58:35;;;;;;;11.10;7.70;;;9.10;99.90;;;;;;4916814;23;20056;-69
2021/04/09 08:01:03;;;;;;;15.15;8.05;;;9.60;99.90;;;;;;4919778;29;20519;-70
2021/04/09 08:03:35;;;;;;;13.98;8.05;;;9.40;99.90;;;;;;4898911;29;20477;-68
2021/04/09 08:06:07;;;;;;;9.13;8.00;;;9.70;99.90;;;;;;4897212;29;20060;-68
2021/04/09 08:08:34;;;;;;;15.88;8.65;;;9.40;99.90;;;;;;4897087;29;20470;-68
2021/04/09 08:11:21;;;;;;;14.88;8.90;;;9.00;99.90;;;;;;4892133;29;20049;-73
2021/04/09 08:14:09;;;;;;;14.18;8.20;;;9.00;99.90;;;;;;4889787;29;20071;-70
2021/04/09 08:16:37;;;;;;;17.52;7.93;;;9.20;99.90;;;;;;4891726;29;20726;-70
2021/04/09 08:19:07;;;;;;;12.77;7.80;;;9.50;99.90;;;;;;4906231;29;20405;-71
2021/04/09 08:21:35;;;;;;;15.65;8.07;;;9.90;99.90;;;;;;4906117;29;20049;-69
2021/04/09 08:24:03;;;;;;;14.75;8.10;;;10.00;99.90;;;;;;4894525;29;20091;-71
2021/04/09 08:26:30;;;;;;;13.70;7.63;;;9.50;99.90;;;;;;4887056;29;20093;-68
2021/04/09 08:28:58;;;;;;;12.68;8.30;;;8.90;99.90;;;;;;4892246;29;20104;-69
2021/04/09 08:31:25;;;;;;;16.80;8.98;;;9.00;99.90;;;;;;4894251;29;20147;-69
2021/04/09 08:33:53;;;;;;;26.63;12.05;;;8.80;99.90;;;;;;4899428;29;20052;-70
2021/04/09 08:36:20;;;;;;;16.65;8.18;;;9.00;99.90;;;;;;4892386;29;20429;-70
2021/04/09 08:38:47;;;;;;;37.05;13.32;;;9.20;99.90;;;;;;4894141;29;20053;-70
2021/04/09 08:41:15;;;;;;;28.67;11.43;;;9.30;99.90;;;;;;4894013;29;20116;-69
2021/04/09 08:43:43;;;;;;;22.40;10.00;;;9.20;99.90;;;;;;4893752;29;20052;-67
2021/04/09 08:46:09;;;;;;;13.27;8.15;;;9.40;99.90;;;;;;4890887;29;20487;-69
2021/04/09 08:48:38;;;;;;;12.50;8.50;;;9.80;99.90;;;;;;4904913;29;20512;-70
2021/04/09 08:51:07;;;;;;;20.42;9.30;;;10.50;99.90;;;;;;4897405;29;20128;-71
2021/04/09 08:53:34;;;;;;;40.58;14.23;;;10.90;99.90;;;;;;4894873;29;20612;-71
2021/04/09 08:56:02;;;;;;;15.68;8.88;;;10.80;99.90;;;;;;4900206;29;20079;-70
2021/04/09 08:58:30;;;;;;;15.68;9.85;;;11.80;99.90;;;;;;4893713;29;20084;-68
2021/04/09 09:01:11;;;;;;;24.70;11.45;;;12.70;99.90;;;;;;4896537;29;20048;-69
2021/04/09 09:03:38;;;;;;;21.08;9.55;;;13.10;97.80;;;;;;4907458;29;20075;-70
2021/04/09 09:06:06;;;;;;;20.52;9.73;;;12.40;97.60;;;;;;4905899;29;20048;-69
2021/04/09 09:08:58;;;;;;;32.60;12.35;;;12.00;97.80;;;;;;4896881;29;20562;-69
2021/04/09 09:11:50;;;;;;;18.35;8.60;;;11.90;98.10;;;;;;4894436;29;20572;-70
2021/04/09 09:14:50;;;;;;;47.20;15.68;;;12.10;97.60;;;;;;4894945;29;20052;-69
2021/04/09 09:17:39;;;;;;;13.00;7.88;;;12.70;96.80;;;;;;4847886;29;20116;-70
2021/04/09 09:20:10;;;;;;;13.27;7.93;;;12.40;96.60;;;;;;4844839;29;20744;-69
2021/04/09 09:22:46;;;;;;;17.73;9.30;;;12.50;95.80;;;;;;4875148;29;20072;-70
2021/04/09 09:25:12;;;;;;;47.42;13.82;;;12.00;96.50;;;;;;4878254;29;20120;-70
2021/04/09 09:27:46;;;;;;;27.20;10.52;;;12.10;96.40;;;;;;4877747;29;20056;-70
2021/04/09 09:30:35;;;;;;;14.93;9.13;;;12.40;96.40;;;;;;4881529;29;20045;-71
2021/04/09 09:33:28;;;;;;;20.45;8.70;;;13.00;95.60;;;;;;4886434;29;20047;-72
2021/04/09 09:35:56;;;;;;;16.95;9.02;;;13.10;95.10;;;;;;4891462;29;20056;-71
2021/04/09 09:38:57;;;;;;;17.20;8.85;;;13.00;94.60;;;;;;4894055;29;20044;-70
2021/04/09 09:41:35;;;;;;;12.13;9.27;;;13.00;94.60;;;;;;4830364;29;20073;-70
2021/04/09 09:44:02;;;;;;;15.95;8.60;;;13.00;94.20;;;;;;4837595;29;20053;-71
2021/04/09 09:46:51;;;;;;;14.45;8.68;;;13.00;94.40;;;;;;4868318;29;20148;-71
2021/04/09 09:49:18;;;;;;;13.15;7.60;;;13.30;93.80;;;;;;4895857;29;20044;-70
2021/04/09 09:51:45;;;;;;;12.32;8.52;;;13.20;93.60;;;;;;4895676;29;20049;-70
2021/04/09 09:54:23;;;;;;;19.35;10.73;;;13.50;93.00;;;;;;4895169;29;20072;-70
2021/04/09 09:56:50;;;;;;;14.05;8.35;;;13.20;93.40;;;;;;4899359;29;20040;-69
2021/04/09 09:59:18;;;;;;;11.50;8.55;;;13.10;92.50;;;;;;4895809;29;20521;-69
2021/04/09 10:01:52;;;;;;;11.98;9.18;;;13.10;92.80;;;;;;4896446;29;20048;-69
2021/04/09 10:04:21;;;;;;;13.57;8.20;;;12.90;92.80;;;;;;4896180;29;20072;-69
2021/04/09 10:06:53;;;;;;;12.23;8.10;;;12.60;93.10;;;;;;4894701;29;20515;-68
2021/04/09 10:09:27;;;;;;;25.05;12.30;;;12.40;93.30;;;;;;4895539;29;20049;-71
2021/04/09 10:11:53;;;;;;;12.25;9.48;;;12.20;93.60;;;;;;4895510;29;20063;-69
2021/04/09 10:14:20;;;;;;;28.10;12.05;;;12.80;92.90;;;;;;4885227;29;20441;-69
2021/04/09 10:16:46;;;;;;;;;;;12.80;92.40;;;;;;4886395;29;20547;-69
2021/04/09 10:19:13;;;;;;;17.40;8.35;;;13.40;91.70;;;;;;4912527;29;19923;-68
2021/04/09 10:21:41;;;;;;;;;;;13.60;91.10;;;;;;4893642;29;20247;-68
2021/04/09 10:24:10;;;;;;;29.08;12.10;;;13.90;90.70;;;;;;4894737;29;19923;-68
2021/04/09 10:26:38;;;;;;;13.23;9.13;;;13.80;90.00;;;;;;4892509;29;20056;-68
2021/04/09 10:29:22;;;;;;;9.90;8.32;;;14.40;89.40;;;;;;4894550;29;20130;-68
2021/04/09 10:31:49;;;;;;;12.73;7.78;;;14.60;86.30;;;;;;4894881;29;20049;-69
2021/04/09 10:34:20;;;;;;;12.52;7.38;;;14.70;85.80;;;;;;4889828;29;20500;-70
2021/04/09 10:36:47;;;;;;;14.52;9.25;;;13.80;86.90;;;;;;4894844;29;20060;-70
2021/04/09 10:39:15;;;;;;;13.60;8.75;;;13.80;86.70;;;;;;4893234;29;20048;-69
2021/04/09 10:41:45;;;;;;;24.38;10.50;;;14.50;86.20;;;;;;4894264;29;20044;-69
2021/04/09 10:44:15;;;;;;;10.13;8.13;;;14.50;84.40;;;;;;4895096;29;20052;-69
2021/04/09 10:46:43;;;;;;;13.20;8.77;;;14.10;85.30;;;;;;4894835;29;20036;-69
2021/04/09 10:49:12;;;;;;;15.65;8.70;;;14.20;84.80;;;;;;4894484;29;20052;-70
2021/04/09 10:51:41;;;;;;;15.70;9.18;;;14.40;84.30;;;;;;4895098;29;20045;-69
2021/04/09 10:54:11;;;;;;;22.00;9.20;;;14.90;84.00;;;;;;4894933;29;20056;-70
2021/04/09 10:56:38;;;;;;;12.85;9.00;;;14.00;83.70;;;;;;4894598;29;20146;-70
2021/04/09 10:59:08;;;;;;;14.45;8.50;;;14.00;85.70;;;;;;4894069;29;20428;-69
2021/04/09 11:01:35;;;;;;;10.68;8.80;;;14.50;84.30;;;;;;4894673;29;20041;-67
2021/04/09 11:04:02;;;;;;;17.55;10.40;;;14.40;83.30;;;;;;4894756;29;20055;-68
2021/04/09 11:06:29;;;;;;;12.18;8.43;;;14.40;83.90;;;;;;4890521;29;20047;-68
2021/04/09 11:09:01;;;;;;;18.33;11.48;;;13.80;85.90;;;;;;4901553;29;20044;-68
2021/04/09 11:11:31;;;;;;;14.02;9.13;;;13.30;87.30;;;;;;4896590;29;20040;-70
2021/04/09 11:14:03;;;;;;;12.75;8.90;;;14.10;87.70;;;;;;4905137;29;20076;-71
2021/04/09 11:16:29;;;;;;;12.60;8.52;;;14.40;85.40;;;;;;4909838;29;20048;-70
2021/04/09 11:18:57;;;;;;;13.57;8.50;;;14.50;84.50;;;;;;4893890;29;20079;-69
2021/04/09 11:21:43;;;;;;;14.95;8.82;;;14.50;85.10;;;;;;4894602;29;20049;-69
2021/04/09 11:24:11;;;;;;;12.10;10.30;;;14.90;83.50;;;;;;4905933;29;20285;-69
2021/04/09 11:26:39;;;;;;;22.02;11.57;;;15.50;82.50;;;;;;4893686;29;20045;-70
2021/04/09 11:29:06;;;;;;;14.63;9.13;;;16.00;80.90;;;;;;4886344;29;20072;-69
2021/04/09 11:31:33;;;;;;;;;;;15.80;79.10;;;;;;4894318;29;20068;-70
2021/04/09 11:34:07;;;;;;;11.65;7.70;;;15.80;78.60;;;;;;4894122;29;19923;-70
2021/04/09 11:36:42;;;;;;;14.90;8.70;;;15.60;79.00;;;;;;4893628;29;20068;-70
2021/04/09 11:39:11;;;;;;;10.77;8.00;;;15.30;79.60;;;;;;4893836;29;20048;-69
2021/04/09 11:41:40;;;;;;;10.73;8.45;;;15.80;78.40;;;;;;4892408;29;20068;-69
2021/04/09 11:44:33;;;;;;;16.33;7.82;;;16.20;77.00;;;;;;4893750;29;20053;-69
2021/04/09 11:47:19;;;;;;;11.65;7.20;;;16.30;73.40;;;;;;4892168;29;20060;-68
2021/04/09 11:49:47;;;;;;;10.43;8.07;;;16.10;73.40;;;;;;4893973;29;20052;-68
2021/04/09 11:52:14;;;;;;;12.95;7.47;;;15.50;74.70;;;;;;4892325;29;20139;-68
2021/04/09 11:54:43;;;;;;;12.50;7.70;;;15.80;75.00;;;;;;4894145;29;20623;-68
2021/04/09 11:57:24;;;;;;;11.35;7.75;;;16.10;73.90;;;;;;4890738;29;20047;-68
2021/04/09 11:59:51;;;;;;;12.90;7.70;;;16.10;72.40;;;;;;4892231;29;20056;-68
2021/04/09 12:02:21;;;;;;;11.77;7.88;;;16.70;72.00;;;;;;4893826;29;20076;-68
2021/04/09 12:04:48;;;;;;;15.75;7.55;;;16.60;71.10;;;;;;4894698;29;20044;-67
2021/04/09 12:07:17;;;;;;;12.32;9.07;;;16.10;72.20;;;;;;4884622;29;20064;-69
2021/04/09 12:09:45;;;;;;;13.80;9.27;;;16.70;72.00;;;;;;4875023;29;20049;-69
2021/04/09 12:12:13;;;;;;;11.60;8.32;;;17.10;70.90;;;;;;4884687;29;20085;-70
2021/04/09 12:14:43;;;;;;;10.98;8.10;;;17.30;69.70;;;;;;4877680;29;20053;-71
2021/04/09 12:17:11;;;;;;;14.07;8.30;;;16.80;70.00;;;;;;4891700;29;20123;-71
2021/04/09 12:19:39;;;;;;;12.07;9.25;;;16.80;69.70;;;;;;4894001;29;20139;-69
2021/04/09 12:22:07;;;;;;;10.63;8.35;;;16.30;71.60;;;;;;4893687;29;20049;-69
2021/04/09 12:24:34;;;;;;;11.93;8.43;;;17.00;71.60;;;;;;4893271;29;20076;-69
2021/04/09 12:27:01;;;;;;;11.10;8.15;;;17.00;71.60;;;;;;4892988;29;20072;-68
2021/04/09 12:29:28;;;;;;;14.38;8.52;;;16.90;71.90;;;;;;4891232;29;20044;-68
2021/04/09 12:31:56;;;;;;;14.73;7.93;;;15.60;73.10;;;;;;4888772;29;20090;-69
2021/04/09 12:34:22;;;;;;;10.45;8.23;;;16.30;73.50;;;;;;4892096;29;20068;-70
2021/04/09 12:36:50;;;;;;;12.23;8.20;;;17.40;72.30;;;;;;4893439;29;20093;-69
2021/04/09 12:39:18;;;;;;;10.32;7.63;;;17.50;70.70;;;;;;4895241;29;20053;-66
2021/04/09 12:41:44;;;;;;;11.23;7.60;;;17.40;69.80;;;;;;4891672;29;20052;-69
2021/04/09 12:44:13;;;;;;;15.70;7.75;;;16.80;70.00;;;;;;4896269;29;20087;-68
2021/04/09 12:46:40;;;;;;;14.77;8.05;;;17.00;71.20;;;;;;4897318;29;20037;-69
2021/04/09 12:49:07;;;;;;;;;;;16.80;71.10;;;;;;4880693;29;20053;-70
2021/04/09 12:51:35;;;;;;;12.20;7.13;;;16.80;71.90;;;;;;4883319;29;19930;-69
2021/04/09 12:54:02;;;;;;;10.68;6.00;;;16.90;65.90;;;;;;4891608;29;20107;-69
2021/04/09 12:56:28;;;;;;;7.50;6.10;;;16.70;64.20;;;;;;4887915;29;20177;-70
2021/04/09 12:58:55;;;;;;;12.52;6.47;;;17.80;63.20;;;;;;4897594;29;20458;-71
2021/04/09 13:01:22;;;;;;;14.00;7.10;;;18.40;60.70;;;;;;4896893;29;20123;-72
2021/04/09 13:03:49;;;;;;;;;;;18.40;61.40;;;;;;4893687;29;20037;-69
2021/04/09 13:06:17;;;;;;;9.23;5.73;;;18.20;60.80;;;;;;4894025;29;19993;-69
2021/04/09 13:08:45;;;;;;;13.80;7.30;;;18.20;60.70;;;;;;4894458;29;20055;-69
2021/04/09 13:11:12;;;;;;;9.82;6.85;;;18.00;60.70;;;;;;4895019;29;20051;-69
2021/04/09 13:13:38;;;;;;;12.07;7.15;;;18.00;60.70;;;;;;4896882;29;20131;-69
2021/04/09 13:16:06;;;;;;;13.02;6.97;;;18.40;59.60;;;;;;4896230;29;20045;-69
2021/04/09 13:18:33;;;;;;;13.55;6.38;;;18.70;58.10;;;;;;4893643;29;20049;-68
2021/04/09 13:21:02;;;;;;;8.90;6.55;;;18.90;58.70;;;;;;4899788;29;20487;-67
2021/04/09 13:23:30;;;;;;;10.27;7.07;;;18.40;58.60;;;;;;4897768;29;20674;-69
2021/04/09 13:25:57;;;;;;;11.02;6.93;;;18.00;59.20;;;;;;4896094;29;20047;-69
2021/04/09 13:28:24;;;;;;;10.60;6.97;;;17.10;61.20;;;;;;4894778;29;20044;-69
2021/04/09 13:30:59;;;;;;;11.25;6.38;;;17.40;60.40;;;;;;4895739;29;20159;-69
2021/04/09 13:33:27;;;;;;;10.07;6.68;;;17.40;60.40;;;;;;4891900;29;20051;-70
2021/04/09 13:35:56;;;;;;;9.77;7.28;;;16.90;60.70;;;;;;4893582;29;20063;-70
2021/04/09 13:38:24;;;;;;;11.95;6.65;;;16.90;61.80;;;;;;4882804;29;20069;-69
2021/04/09 13:40:52;;;;;;;11.32;6.20;;;16.80;60.70;;;;;;4893640;29;20869;-69
2021/04/09 13:43:19;;;;;;;12.32;6.75;;;17.00;60.30;;;;;;4895400;29;20119;-69
2021/04/09 13:45:47;;;;;;;10.48;7.25;;;17.30;60.40;;;;;;4895296;29;20049;-70
2021/04/09 13:48:15;;;;;;;9.35;6.68;;;17.50;60.20;;;;;;4894440;29;20123;-69
2021/04/09 13:50:42;;;;;;;9.98;7.57;;;17.40;61.20;;;;;;4895461;29;20052;-69
2021/04/09 13:53:10;;;;;;;10.07;6.70;;;17.10;60.60;;;;;;4895822;29;20056;-69
2021/04/09 13:55:37;;;;;;;10.13;7.32;;;17.10;61.60;;;;;;4895542;29;20052;-69
2021/04/09 13:58:05;;;;;;;10.27;6.47;;;17.40;61.00;;;;;;4888955;29;20047;-70
2021/04/09 14:00:33;;;;;;;13.20;6.78;;;17.20;60.20;;;;;;4886805;29;20049;-69
2021/04/09 14:03:00;;;;;;;13.05;6.47;;;17.30;61.00;;;;;;4890945;29;20069;-68
2021/04/09 14:05:27;;;;;;;12.25;6.70;;;17.40;61.50;;;;;;4895237;29;20051;-69
2021/04/09 14:07:54;;;;;;;8.50;6.43;;;17.40;60.40;;;;;;4895251;29;20048;-70
2021/04/09 14:10:20;;;;;;;;;;;17.30;61.70;;;;;;4895546;29;20052;-71
2021/04/09 14:12:47;;;;;;;10.68;6.60;;;17.40;61.40;;;;;;4898429;29;20368;-73
2021/04/09 14:15:17;;;;;;;16.08;7.60;;;17.50;60.70;;;;;;4899139;29;20554;-68
2021/04/09 14:17:44;;;;;;;11.60;7.25;;;17.60;61.70;;;;;;4905254;29;20032;-71
2021/04/09 14:20:13;;;;;;;11.93;7.43;;;17.80;61.10;;;;;;4896138;29;20048;-69
2021/04/09 14:22:40;;;;;;;9.75;6.53;;;18.00;61.60;;;;;;4896198;29;20369;-69
2021/04/09 14:25:11;;;;;;;11.13;6.40;;;18.20;60.10;;;;;;4909594;29;20059;-68
2021/04/09 14:27:38;;;;;;;8.77;7.07;;;17.40;61.10;;;;;;4887241;29;20472;-70
2021/04/09 14:30:07;;;;;;;11.30;7.20;;;17.00;60.80;;;;;;4894011;29;20056;-68
2021/04/09 14:32:35;;;;;;;9.57;7.53;;;17.00;61.30;;;;;;4886427;29;20065;-69
2021/04/09 14:35:02;;;;;;;12.00;7.32;;;17.00;61.90;;;;;;4894937;29;20647;-67
2021/04/09 14:37:28;;;;;;;7.68;6.20;;;17.30;60.80;;;;;;4882062;29;20121;-68
2021/04/09 14:39:55;;;;;;;;;;;17.30;60.70;;;;;;4889107;29;20048;-68
2021/04/09 14:42:22;;;;;;;12.13;6.47;;;17.50;60.80;;;;;;4892896;29;20329;-66
2021/04/09 14:44:49;;;;;;;7.10;5.90;;;17.80;59.50;;;;;;4888576;29;20076;-69
2021/04/09 14:47:15;;;;;;;8.85;6.15;;;17.70;58.80;;;;;;4889563;29;20071;-72
2021/04/09 14:49:43;;;;;;;;;;;17.70;59.70;;;;;;4895706;29;20045;-67
2021/04/09 14:52:10;;;;;;;7.78;6.05;;;18.00;59.60;;;;;;4892786;29;19923;-66
2021/04/09 14:54:36;;;;;;;10.63;6.50;;;17.90;59.60;;;;;;4893420;29;20053;-67
2021/04/09 14:57:03;;;;;;;11.00;6.30;;;17.60;59.20;;;;;;4891543;29;20045;-69
2021/04/09 14:59:29;;;;;;;;;;;17.60;59.30;;;;;;4891191;29;20061;-67
2021/04/09 15:01:56;;;;;;;11.38;6.20;;;17.80;59.60;;;;;;4892562;29;20021;-69
2021/04/09 15:04:22;;;;;;;8.70;6.38;;;18.00;60.00;;;;;;4894085;29;20092;-69
2021/04/09 15:06:49;;;;;;;7.97;6.22;;;18.20;58.30;;;;;;4891128;29;20139;-69
2021/04/09 15:09:16;;;;;;;11.50;7.55;;;17.80;58.90;;;;;;4892104;29;20072;-68
2021/04/09 15:11:42;;;;;;;7.72;5.10;;;17.80;58.60;;;;;;4892836;29;20056;-68
2021/04/09 15:14:09;;;;;;;9.30;5.78;;;17.50;58.70;;;;;;4894138;29;20164;-69
2021/04/09 15:16:35;;;;;;;15.68;9.60;;;17.60;58.50;;;;;;4895250;29;20063;-68
2021/04/09 15:19:02;;;;;;;12.10;9.07;;;17.80;60.40;;;;;;4903784;29;20140;-67
2021/04/09 15:21:29;;;;;;;;;;;17.60;61.00;;;;;;4896267;29;20132;-68
2021/04/09 15:23:56;;;;;;;11.02;7.55;;;17.40;60.80;;;;;;4908389;29;19967;-68
2021/04/09 15:26:23;;;;;;;9.93;7.28;;;17.50;61.30;;;;;;4875584;29;20053;-68
2021/04/09 15:28:49;;;;;;;10.85;9.77;;;17.40;61.50;;;;;;4882723;29;20048;-68
2021/04/09 15:31:16;;;;;;;13.05;11.30;;;17.50;60.70;;;;;;4900385;29;20047;-68
2021/04/09 15:33:43;;;;;;;14.55;11.68;;;17.30;59.40;;;;;;4897039;29;20091;-68
2021/04/09 15:36:09;;;;;;;8.13;6.22;;;17.20;59.50;;;;;;4893664;29;20134;-68
2021/04/09 15:38:36;;;;;;;9.00;5.32;;;17.10;60.00;;;;;;4892911;29;20041;-67
2021/04/09 15:41:05;;;;;;;10.48;5.43;;;17.00;60.30;;;;;;4894040;29;20052;-67
2021/04/09 15:43:32;;;;;;;7.45;5.35;;;17.10;60.50;;;;;;4888295;29;20059;-68
2021/04/09 15:45:59;;;;;;;5.68;4.60;;;16.80;59.30;;;;;;4885862;29;20045;-68
2021/04/09 15:48:25;;;;;;;8.43;5.80;;;16.80;59.80;;;;;;4885097;29;20036;-65
2021/04/09 15:50:52;;;;;;;;;;;16.80;59.90;;;;;;4887653;29;20497;-69
2021/04/09 15:53:20;;;;;;;13.88;12.35;;;16.40;59.60;;;;;;4884355;29;20006;-68
2021/04/09 15:55:46;;;;;;;9.20;6.03;;;16.40;60.10;;;;;;4886163;29;20123;-68
2021/04/09 15:58:14;;;;;;;;;;;16.40;60.50;;;;;;4886772;29;20060;-68
2021/04/09 16:00:40;;;;;;;17.10;5.33;;;16.30;60.20;;;;;;4884516;29;19943;-67
2021/04/09 16:03:07;;;;;;;9.77;4.90;;;16.30;59.80;;;;;;4888737;29;20526;-67
2021/04/09 16:05:33;;;;;;;7.90;5.30;;;16.30;60.50;;;;;;4886457;29;20052;-67
2021/04/09 16:08:01;;;;;;;;;;;16.40;61.00;;;;;;4886102;29;20056;-68
2021/04/09 16:10:28;;;;;;;6.78;4.50;;;16.30;60.50;;;;;;4886175;29;20018;-67
2021/04/09 16:12:54;;;;;;;7.57;4.32;;;16.20;57.70;;;;;;4889512;29;20136;-67
2021/04/09 16:15:22;;;;;;;8.63;5.00;;;16.00;53.00;;;;;;4891786;29;20056;-69
2021/04/09 16:17:48;;;;;;;12.15;4.78;;;16.10;52.50;;;;;;4888719;29;20696;-68
2021/04/09 16:20:17;;;;;;;5.95;4.43;;;16.00;51.00;;;;;;4889208;29;20100;-66
2021/04/09 16:22:44;;;;;;;8.13;4.95;;;16.00;51.10;;;;;;4888988;29;20047;-68
2021/04/09 16:25:14;;;;;;;12.57;5.47;;;15.90;52.30;;;;;;4889373;29;20047;-67
2021/04/09 16:27:42;;;;;;;14.15;5.05;;;15.80;52.30;;;;;;4887654;29;20055;-68
2021/04/09 16:30:10;;;;;;;9.20;5.20;;;15.60;52.30;;;;;;4890095;29;20048;-69
2021/04/09 16:32:37;;;;;;;7.07;4.65;;;15.60;52.70;;;;;;4889333;29;20124;-69
2021/04/09 16:35:04;;;;;;;5.82;4.38;;;15.60;52.90;;;;;;4893996;29;20056;-71
2021/04/09 16:37:31;;;;;;;7.88;5.03;;;15.60;53.30;;;;;;4891557;29;20049;-71
2021/04/09 16:39:58;;;;;;;7.57;4.65;;;15.50;53.10;;;;;;4889731;29;20405;-72
2021/04/09 16:42:24;;;;;;;9.60;4.53;;;15.40;53.50;;;;;;4890617;29;20063;-71
2021/04/09 16:44:51;;;;;;;10.02;8.25;;;15.40;53.70;;;;;;4889928;29;20045;-72
2021/04/09 16:47:17;;;;;;;7.63;5.47;;;15.40;54.10;;;;;;4888371;29;20508;-72
2021/04/09 16:49:45;;;;;;;;;;;15.30;54.30;;;;;;4889959;29;20496;-72
2021/04/09 16:52:11;;;;;;;6.60;5.60;;;15.30;54.20;;;;;;4890443;29;19954;-72
2021/04/09 16:54:38;;;;;;;6.47;5.63;;;15.20;54.80;;;;;;4889987;29;20428;-70
2021/04/09 16:57:05;;;;;;;;;;;15.20;55.30;;;;;;4892248;29;20037;-70
2021/04/09 16:59:32;;;;;;;12.55;7.18;;;15.20;55.70;;;;;;4896477;29;19939;-72
2021/04/09 17:01:58;;;;;;;8.35;5.65;;;15.20;55.80;;;;;;4895693;29;20056;-71
2021/04/09 17:04:25;;;;;;;134.77;94.90;;;15.20;56.50;;;;;;4895966;29;20037;-71
2021/04/09 17:06:53;;;;;;;8.05;5.50;;;15.20;56.50;;;;;;4894997;29;20075;-71
2021/04/09 17:09:20;;;;;;;11.77;5.38;;;15.10;56.00;;;;;;4892789;29;20059;-69
2021/04/09 17:11:46;;;;;;;7.72;4.85;;;15.10;56.50;;;;;;4883764;29;20211;-71
2021/04/09 17:14:13;;;;;;;8.98;5.25;;;15.20;55.90;;;;;;4893187;29;20527;-69
2021/04/09 17:16:40;;;;;;;8.35;5.18;;;15.10;56.00;;;;;;4896027;29;20103;-71
2021/04/09 17:19:07;;;;;;;8.32;5.03;;;15.10;56.60;;;;;;4896626;29;20482;-71
2021/04/09 17:21:33;;;;;;;12.20;5.05;;;15.00;56.70;;;;;;4893153;29;20049;-70
2021/04/09 17:24:01;;;;;;;7.53;4.63;;;15.00;57.40;;;;;;4897221;29;20051;-69
2021/04/09 17:26:27;;;;;;;8.15;5.63;;;14.90;56.90;;;;;;4894441;29;20048;-69
2021/04/09 17:28:54;;;;;;;7.28;5.20;;;14.90;57.40;;;;;;4893475;29;20040;-70
2021/04/09 17:31:20;;;;;;;13.93;5.97;;;14.80;57.40;;;;;;4895630;29;20047;-69
2021/04/09 17:33:47;;;;;;;7.85;6.57;;;14.70;57.80;;;;;;4893456;29;20103;-69
2021/04/09 17:36:14;;;;;;;;;;;14.70;58.10;;;;;;4896681;29;20063;-70
2021/04/09 17:38:40;;;;;;;12.60;6.20;;;14.50;58.70;;;;;;4895189;29;19923;-71
2021/04/09 17:41:07;;;;;;;9.82;5.55;;;14.40;58.70;;;;;;4895748;29;20204;-70
2021/04/09 17:43:34;;;;;;;9.27;5.35;;;14.40;59.50;;;;;;4890580;29;20437;-69
2021/04/09 17:46:01;;;;;;;9.10;5.35;;;14.30;59.50;;;;;;4892380;29;20291;-70